Time;durP1;ratioP1;P1;durP2;ratioP2;P2;SDS_P1;SDS_P2;PMS_P1;PMS_P2;Temp;Humidity;BMP_temperature;BMP_pressure;BME280_temperature;BME280_humidity;BME280_pressure;Samples;Min_cycle;Max_cycle;Signal;HPM_P1;HPM_P2
2022/03/01 00:00:38;;;;;;;16.17;11.73;;;;;;;;;;5059906;28;20242;-85
2022/03/01 00:03:04;;;;;;;18.63;12.33;;;;;;;;;;5069252;28;20210;-85
2022/03/01 00:05:30;;;;;;;14.83;11.43;;;;;;;;;;5076157;28;20182;-84
2022/03/01 00:07:56;;;;;;;16.87;11.93;;;;;;;;;;5056964;28;20174;-85
2022/03/01 00:10:22;;;;;;;16.27;12.00;;;;;;;;;;5054776;28;20188;-85
2022/03/01 00:12:48;;;;;;;20.27;11.60;;;;;;;;;;5063315;28;20178;-85
2022/03/01 00:15:19;;;;;;;14.07;11.33;;;;;;;;;;5022826;28;20217;-85
2022/03/01 00:17:45;;;;;;;16.10;11.90;;;;;;;;;;5042304;28;20193;-85
2022/03/01 00:20:11;;;;;;;17.70;10.80;;;;;;;;;;5060000;28;20185;-86
2022/03/01 00:22:37;;;;;;;16.40;10.70;;;;;;;;;;5033161;28;20183;-85
2022/03/01 00:25:04;;;;;;;13.50;10.50;;;;;;;;;;5054904;28;20196;-85
2022/03/01 00:27:29;;;;;;;14.13;10.93;;;;;;;;;;5059623;28;20201;-85
2022/03/01 00:29:55;;;;;;;15.87;10.30;;;;;;;;;;5041505;28;20188;-85
2022/03/01 00:32:22;;;;;;;18.37;11.47;;;;;;;;;;5054376;28;20170;-85
2022/03/01 00:34:48;;;;;;;15.03;11.33;;;;;;;;;;5049908;28;20174;-85
2022/03/01 00:37:14;;;;;;;14.63;10.90;;;;;;;;;;5055638;28;20197;-85
2022/03/01 00:39:43;;;;;;;16.53;11.10;;;;;;;;;;5058843;28;20165;-85
2022/03/01 00:42:09;;;;;;;14.97;10.90;;;;;;;;;;5045002;28;20203;-85
2022/03/01 00:44:36;;;;;;;13.40;10.17;;;;;;;;;;5050828;28;20197;-85
2022/03/01 00:47:02;;;;;;;14.73;10.37;;;;;;;;;;5052098;28;20200;-85
2022/03/01 00:49:28;;;;;;;13.80;11.00;;;;;;;;;;5038099;28;20659;-85
2022/03/01 00:51:54;;;;;;;14.43;10.70;;;;;;;;;;5050001;28;20189;-85
2022/03/01 00:54:20;;;;;;;15.53;9.93;;;;;;;;;;5040555;28;20185;-84
2022/03/01 00:56:46;;;;;;;15.53;10.83;;;;;;;;;;5039286;28;20201;-85
2022/03/01 00:59:12;;;;;;;15.53;10.23;;;;;;;;;;5057432;28;20188;-85
2022/03/01 01:01:39;;;;;;;14.17;10.47;;;;;;;;;;5057958;28;20186;-85
2022/03/01 01:04:05;;;;;;;20.50;12.70;;;;;;;;;;5058724;28;20202;-85
2022/03/01 01:06:31;;;;;;;16.13;12.50;;;;;;;;;;5056968;28;20205;-85
2022/03/01 01:08:57;;;;;;;16.63;11.60;;;;;;;;;;5055263;28;20670;-85
2022/03/01 01:11:23;;;;;;;13.37;10.63;;;;;;;;;;5025462;28;20209;-85
2022/03/01 01:13:50;;;;;;;13.30;10.20;;;;;;;;;;5057432;28;20272;-85
2022/03/01 01:16:16;;;;;;;14.50;10.23;;;;;;;;;;5039037;28;20275;-85
2022/03/01 01:18:45;;;;;;;12.23;10.23;;;;;;;;;;5038971;28;20181;-85
2022/03/01 01:21:11;;;;;;;13.47;10.07;;;;;;;;;;5057077;28;20193;-84
2022/03/01 01:23:38;;;;;;;11.13;10.00;;;;;;;;;;5038414;28;20217;-85
2022/03/01 01:26:04;;;;;;;12.20;9.93;;;;;;;;;;5056555;28;20718;-85
2022/03/01 01:28:30;;;;;;;12.90;9.80;;;;;;;;;;5056741;28;20180;-85
2022/03/01 01:30:56;;;;;;;12.50;9.87;;;;;;;;;;5039012;28;20193;-85
2022/03/01 01:33:22;;;;;;;14.57;9.73;;;;;;;;;;5042971;28;20208;-85
2022/03/01 01:35:48;;;;;;;15.70;9.90;;;;;;;;;;5055867;28;20236;-85
2022/03/01 01:38:14;;;;;;;13.07;9.67;;;;;;;;;;5038894;28;20174;-85
2022/03/01 01:40:40;;;;;;;12.77;9.53;;;;;;;;;;5056722;28;20227;-85
2022/03/01 01:43:06;;;;;;;12.47;10.30;;;;;;;;;;5056389;28;20201;-85
2022/03/01 01:45:33;;;;;;;13.13;10.10;;;;;;;;;;5038152;28;20201;-85
2022/03/01 01:48:00;;;;;;;12.60;10.07;;;;;;;;;;5038679;28;20235;-85
2022/03/01 01:50:26;;;;;;;14.27;10.27;;;;;;;;;;5056043;28;20270;-85
2022/03/01 01:52:53;;;;;;;11.97;9.60;;;;;;;;;;5056372;28;20261;-84
2022/03/01 01:55:20;;;;;;;14.97;10.33;;;;;;;;;;5056268;28;20201;-85
2022/03/01 01:57:46;;;;;;;14.03;9.70;;;;;;;;;;5024402;28;20181;-85
2022/03/01 02:00:12;;;;;;;12.23;9.67;;;;;;;;;;5029031;28;20197;-85
2022/03/01 02:02:39;;;;;;;15.33;9.27;;;;;;;;;;5053491;28;20268;-85
2022/03/01 02:05:05;;;;;;;12.13;9.40;;;;;;;;;;5020153;28;20547;-85
2022/03/01 02:07:31;;;;;;;14.43;9.80;;;;;;;;;;5046571;28;20190;-84
2022/03/01 02:09:57;;;;;;;11.60;9.50;;;;;;;;;;5056371;28;20184;-85
2022/03/01 02:12:23;;;;;;;11.73;9.70;;;;;;;;;;5055723;28;20753;-85
2022/03/01 02:14:49;;;;;;;15.50;10.63;;;;;;;;;;5023523;28;20583;-85
2022/03/01 02:17:15;;;;;;;14.47;10.00;;;;;;;;;;5032300;28;20182;-85
2022/03/01 02:19:48;;;;;;;15.53;10.23;;;;;;;;;;5049565;28;20182;-85
2022/03/01 02:22:14;;;;;;;12.57;9.20;;;;;;;;;;5056957;28;20217;-85
2022/03/01 02:24:40;;;;;;;11.73;9.13;;;;;;;;;;5038496;28;20205;-85
2022/03/01 02:27:06;;;;;;;13.70;10.17;;;;;;;;;;5035664;28;20211;-84
2022/03/01 02:29:32;;;;;;;11.13;9.20;;;;;;;;;;5048441;28;20212;-85
2022/03/01 02:32:00;;;;;;;12.63;9.70;;;;;;;;;;5057312;28;20181;-85
2022/03/01 02:34:26;;;;;;;12.27;9.33;;;;;;;;;;5055834;28;20186;-85
2022/03/01 02:36:53;;;;;;;15.07;9.17;;;;;;;;;;5059867;28;20259;-85
2022/03/01 02:39:19;;;;;;;12.57;9.67;;;;;;;;;;5043493;28;20186;-84
2022/03/01 02:41:46;;;;;;;11.97;9.03;;;;;;;;;;5061280;28;20181;-85
2022/03/01 02:44:12;;;;;;;15.73;9.93;;;;;;;;;;5060768;28;20236;-85
2022/03/01 02:46:38;;;;;;;13.63;10.00;;;;;;;;;;5061041;28;20300;-85
2022/03/01 02:49:05;;;;;;;12.80;10.00;;;;;;;;;;5073679;28;20249;-85
2022/03/01 02:51:31;;;;;;;12.20;9.30;;;;;;;;;;5068120;28;20173;-85
2022/03/01 02:53:57;;;;;;;13.60;9.07;;;;;;;;;;5061755;28;20212;-85
2022/03/01 02:56:23;;;;;;;13.30;9.13;;;;;;;;;;5041963;28;20559;-85
2022/03/01 02:58:49;;;;;;;12.03;9.40;;;;;;;;;;5058726;28;20649;-86
2022/03/01 03:01:15;;;;;;;14.27;9.40;;;;;;;;;;5059351;28;20217;-85
2022/03/01 03:03:41;;;;;;;13.43;9.30;;;;;;;;;;5059542;28;20225;-86
2022/03/01 03:06:07;;;;;;;15.13;9.73;;;;;;;;;;5053405;28;20201;-85
2022/03/01 03:08:33;;;;;;;12.53;9.50;;;;;;;;;;5059342;28;20174;-85
2022/03/01 03:10:59;;;;;;;12.23;9.17;;;;;;;;;;5041896;28;20176;-85
2022/03/01 03:13:25;;;;;;;13.17;9.40;;;;;;;;;;5059417;28;20239;-85
2022/03/01 03:15:52;;;;;;;12.90;9.30;;;;;;;;;;5032815;28;20252;-85
2022/03/01 03:18:18;;;;;;;13.90;10.20;;;;;;;;;;5055200;28;20192;-84
2022/03/01 03:20:44;;;;;;;13.47;10.10;;;;;;;;;;5060166;28;20264;-85
2022/03/01 03:23:10;;;;;;;15.43;9.37;;;;;;;;;;5059648;28;20256;-85
2022/03/01 03:28:11;;;;;;;14.77;10.27;;;;;;;;;;5037453;28;20234;-83
2022/03/01 03:30:37;;;;;;;15.47;9.60;;;;;;;;;;5022078;28;20186;-83
2022/03/01 03:33:03;;;;;;;13.67;10.10;;;;;;;;;;5040089;28;20298;-83
2022/03/01 03:35:29;;;;;;;11.87;9.37;;;;;;;;;;5037883;28;20178;-83
2022/03/01 03:37:55;;;;;;;12.53;9.60;;;;;;;;;;5004900;28;20217;-83
2022/03/01 03:40:21;;;;;;;14.97;10.30;;;;;;;;;;5003730;28;20186;-83
2022/03/01 03:42:47;;;;;;;14.47;10.23;;;;;;;;;;5021879;28;20195;-83
2022/03/01 03:45:13;;;;;;;13.33;9.77;;;;;;;;;;5004496;28;20183;-83
2022/03/01 03:47:41;;;;;;;13.27;9.63;;;;;;;;;;5021844;28;20206;-83
2022/03/01 03:50:09;;;;;;;14.40;9.60;;;;;;;;;;5003954;28;20596;-83
2022/03/01 03:52:36;;;;;;;15.10;9.33;;;;;;;;;;5018582;28;20398;-83
2022/03/01 03:55:02;;;;;;;16.27;10.20;;;;;;;;;;5021762;28;20190;-83
2022/03/01 03:57:28;;;;;;;13.47;9.53;;;;;;;;;;5021521;28;20195;-83
2022/03/01 03:59:54;;;;;;;13.13;8.93;;;;;;;;;;5021338;28;20182;-83
2022/03/01 04:02:20;;;;;;;13.17;9.60;;;;;;;;;;5021074;28;20183;-83
2022/03/01 04:04:46;;;;;;;13.63;9.83;;;;;;;;;;5003141;28;20584;-83
2022/03/01 04:07:12;;;;;;;12.90;10.43;;;;;;;;;;5021357;28;20222;-83
2022/03/01 04:09:38;;;;;;;12.83;9.07;;;;;;;;;;5021624;28;20186;-83
2022/03/01 04:12:04;;;;;;;14.27;9.37;;;;;;;;;;5003675;28;20178;-83
2022/03/01 04:14:30;;;;;;;13.13;9.13;;;;;;;;;;5021340;28;20547;-83
2022/03/01 04:16:56;;;;;;;13.23;9.20;;;;;;;;;;5020987;28;20199;-83
2022/03/01 04:19:23;;;;;;;14.83;9.57;;;;;;;;;;5022055;28;20190;-83
2022/03/01 04:21:49;;;;;;;12.83;9.07;;;;;;;;;;5021234;28;20183;-83
2022/03/01 04:24:15;;;;;;;13.07;8.97;;;;;;;;;;5021716;28;20191;-83
2022/03/01 04:26:41;;;;;;;14.33;9.83;;;;;;;;;;5020938;28;20214;-83
2022/03/01 04:29:07;;;;;;;15.73;10.03;;;;;;;;;;5020948;28;20183;-83
2022/03/01 04:31:33;;;;;;;13.23;9.93;;;;;;;;;;5020890;28;20186;-83
2022/03/01 04:33:59;;;;;;;12.63;9.40;;;;;;;;;;5021298;28;20175;-83
2022/03/01 04:36:25;;;;;;;12.17;9.27;;;;;;;;;;5015847;28;20203;-83
2022/03/01 04:38:51;;;;;;;11.77;9.57;;;;;;;;;;5018391;28;20239;-83
2022/03/01 04:41:17;;;;;;;15.63;10.03;;;;;;;;;;5015388;28;20198;-84
2022/03/01 04:43:43;;;;;;;13.67;9.50;;;;;;;;;;5020717;28;20196;-83
2022/03/01 04:46:10;;;;;;;13.17;9.40;;;;;;;;;;5019365;28;20195;-83
2022/03/01 04:48:37;;;;;;;12.83;9.43;;;;;;;;;;5002359;28;20175;-83
2022/03/01 04:51:04;;;;;;;11.70;9.70;;;;;;;;;;5020199;28;20175;-83
2022/03/01 04:53:30;;;;;;;15.07;10.47;;;;;;;;;;5003242;28;20206;-83
2022/03/01 04:55:56;;;;;;;20.97;15.60;;;;;;;;;;5004075;28;20215;-84
2022/03/01 04:58:22;;;;;;;15.93;9.93;;;;;;;;;;5022680;28;20661;-83
2022/03/01 05:00:48;;;;;;;12.97;9.73;;;;;;;;;;5022981;28;20685;-83
2022/03/01 05:03:14;;;;;;;14.77;9.37;;;;;;;;;;5008419;28;20200;-83
2022/03/01 05:05:40;;;;;;;13.00;9.70;;;;;;;;;;5015333;28;20175;-83
2022/03/01 05:08:06;;;;;;;14.83;10.03;;;;;;;;;;5008792;28;20209;-83
2022/03/01 05:10:32;;;;;;;12.87;10.30;;;;;;;;;;5003147;28;20627;-83
2022/03/01 05:12:59;;;;;;;11.87;9.57;;;;;;;;;;5003458;28;20650;-83
2022/03/01 05:15:26;;;;;;;14.80;9.93;;;;;;;;;;5002365;28;20199;-83
2022/03/01 05:17:53;;;;;;;13.67;10.00;;;;;;;;;;5003647;28;20210;-83
2022/03/01 05:20:19;;;;;;;14.97;10.33;;;;;;;;;;5021683;28;20183;-83
2022/03/01 05:22:46;;;;;;;13.97;9.03;;;;;;;;;;5021637;28;20191;-83
2022/03/01 05:25:14;;;;;;;14.20;9.90;;;;;;;;;;5021228;28;20179;-83
2022/03/01 05:27:43;;;;;;;12.83;9.90;;;;;;;;;;5004248;28;20269;-83
2022/03/01 05:30:10;;;;;;;13.30;9.93;;;;;;;;;;5021445;28;20178;-83
2022/03/01 05:32:37;;;;;;;15.73;10.77;;;;;;;;;;5006833;28;20211;-83
2022/03/01 05:35:04;;;;;;;14.90;10.10;;;;;;;;;;5020970;28;20182;-83
2022/03/01 05:37:30;;;;;;;14.93;9.83;;;;;;;;;;5021482;28;20202;-83
2022/03/01 05:39:56;;;;;;;14.10;9.43;;;;;;;;;;5022730;28;20182;-83
2022/03/01 05:42:23;;;;;;;14.80;9.73;;;;;;;;;;5008940;28;20163;-83
2022/03/01 05:44:50;;;;;;;12.70;9.67;;;;;;;;;;5028059;28;20172;-83
2022/03/01 05:47:16;;;;;;;14.67;10.60;;;;;;;;;;5033381;28;20202;-83
2022/03/01 05:49:42;;;;;;;19.07;11.27;;;;;;;;;;5035693;28;20238;-83
2022/03/01 05:52:08;;;;;;;17.10;10.70;;;;;;;;;;5031845;28;20657;-83
2022/03/01 05:54:34;;;;;;;18.23;10.73;;;;;;;;;;5014304;28;20643;-83
2022/03/01 05:57:00;;;;;;;20.30;11.50;;;;;;;;;;5015109;28;20202;-83
2022/03/01 05:59:26;;;;;;;14.73;10.57;;;;;;;;;;5031994;28;20207;-83
2022/03/01 06:01:52;;;;;;;13.00;10.40;;;;;;;;;;5014627;28;20258;-83
2022/03/01 06:04:18;;;;;;;16.87;10.73;;;;;;;;;;5031603;28;20202;-83
2022/03/01 06:06:44;;;;;;;16.23;11.97;;;;;;;;;;5030488;28;20222;-83
2022/03/01 06:09:10;;;;;;;15.07;11.20;;;;;;;;;;5030360;28;20176;-83
2022/03/01 06:11:36;;;;;;;20.03;10.93;;;;;;;;;;5032444;28;20258;-83
2022/03/01 06:14:03;;;;;;;16.50;10.40;;;;;;;;;;5032836;28;20183;-83
2022/03/01 06:16:29;;;;;;;17.97;10.63;;;;;;;;;;5032919;28;20214;-83
2022/03/01 06:18:55;;;;;;;14.80;9.83;;;;;;;;;;5017397;28;20188;-83
2022/03/01 06:21:21;;;;;;;17.67;10.20;;;;;;;;;;5015793;28;20219;-83
2022/03/01 06:23:49;;;;;;;18.37;10.90;;;;;;;;;;5033236;28;20202;-83
2022/03/01 06:26:16;;;;;;;18.63;10.73;;;;;;;;;;5032858;28;20249;-83
2022/03/01 06:28:42;;;;;;;16.53;10.23;;;;;;;;;;5015757;28;20574;-83
2022/03/01 06:31:08;;;;;;;15.50;10.27;;;;;;;;;;5014995;28;20179;-83
2022/03/01 06:33:34;;;;;;;14.27;10.03;;;;;;;;;;5028749;28;20184;-83
2022/03/01 06:36:00;;;;;;;14.33;10.43;;;;;;;;;;5033552;28;20202;-82
2022/03/01 06:38:26;;;;;;;15.83;10.53;;;;;;;;;;5016005;28;20211;-83
2022/03/01 06:40:56;;;;;;;11.40;9.17;;;;;;;;;;5032241;28;20177;-83
2022/03/01 06:43:23;;;;;;;13.60;10.07;;;;;;;;;;5030051;28;20553;-82
2022/03/01 06:45:49;;;;;;;16.23;10.83;;;;;;;;;;5031918;28;20198;-83
2022/03/01 06:48:17;;;;;;;16.00;10.10;;;;;;;;;;5006617;28;20175;-83
2022/03/01 06:50:43;;;;;;;16.67;10.63;;;;;;;;;;5031671;28;20179;-83
2022/03/01 06:53:10;;;;;;;15.37;9.90;;;;;;;;;;5030070;28;20179;-83
2022/03/01 06:55:36;;;;;;;17.70;10.33;;;;;;;;;;5031842;28;20237;-83
2022/03/01 06:58:03;;;;;;;17.37;10.33;;;;;;;;;;5033223;28;20681;-82
2022/03/01 07:00:29;;;;;;;18.40;10.80;;;;;;;;;;5031526;28;20600;-82
2022/03/01 07:02:55;;;;;;;15.20;10.37;;;;;;;;;;5030023;28;20206;-83
2022/03/01 07:05:21;;;;;;;15.63;10.90;;;;;;;;;;5032089;28;20179;-82
2022/03/01 07:07:47;;;;;;;15.43;10.53;;;;;;;;;;5031967;28;20202;-83
2022/03/01 07:10:15;;;;;;;16.03;10.67;;;;;;;;;;5030936;28;20237;-82
2022/03/01 07:12:41;;;;;;;18.57;11.37;;;;;;;;;;5031276;28;20187;-82
2022/03/01 07:15:08;;;;;;;14.20;10.27;;;;;;;;;;5030824;28;20171;-83
2022/03/01 07:17:34;;;;;;;15.10;10.00;;;;;;;;;;5030665;28;20214;-83
2022/03/01 07:20:03;;;;;;;14.57;10.70;;;;;;;;;;5031734;28;20270;-83
2022/03/01 07:22:29;;;;;;;14.47;11.33;;;;;;;;;;5028882;28;20210;-82
2022/03/01 07:24:55;;;;;;;12.80;10.10;;;;;;;;;;5027826;28;20214;-82
2022/03/01 07:27:21;;;;;;;19.20;11.80;;;;;;;;;;5028543;28;20215;-83
2022/03/01 07:29:47;;;;;;;15.93;10.90;;;;;;;;;;5024141;28;20190;-83
2022/03/01 07:32:13;;;;;;;16.47;11.07;;;;;;;;;;5025333;28;20171;-82
2022/03/01 07:34:40;;;;;;;16.47;11.40;;;;;;;;;;5007539;28;20254;-82
2022/03/01 07:37:06;;;;;;;13.83;10.47;;;;;;;;;;5032431;28;20199;-82
2022/03/01 07:39:33;;;;;;;15.93;10.37;;;;;;;;;;5014399;28;20182;-82
2022/03/01 07:41:58;;;;;;;14.83;10.87;;;;;;;;;;5032511;28;20179;-82
2022/03/01 07:44:25;;;;;;;16.93;11.33;;;;;;;;;;5012897;28;20205;-83
2022/03/01 07:46:51;;;;;;;15.03;11.50;;;;;;;;;;5018605;28;20696;-83
2022/03/01 07:49:17;;;;;;;18.47;11.67;;;;;;;;;;5027051;28;20182;-83
2022/03/01 07:51:43;;;;;;;14.90;11.13;;;;;;;;;;5015357;28;20186;-83
2022/03/01 07:54:09;;;;;;;14.70;11.27;;;;;;;;;;5015747;28;20190;-83
2022/03/01 07:56:35;;;;;;;15.70;11.20;;;;;;;;;;5031065;28;20207;-83
2022/03/01 07:59:01;;;;;;;16.17;10.43;;;;;;;;;;5030645;28;20618;-82
2022/03/01 08:01:27;;;;;;;15.97;10.10;;;;;;;;;;5013028;28;20179;-82
2022/03/01 08:03:53;;;;;;;14.10;10.87;;;;;;;;;;5031406;28;20203;-82
2022/03/01 08:06:19;;;;;;;13.93;11.40;;;;;;;;;;5030945;28;20203;-83
2022/03/01 08:08:55;;;;;;;14.03;10.60;;;;;;;;;;5023793;28;20672;-81
2022/03/01 08:11:21;;;;;;;18.13;11.87;;;;;;;;;;5025217;28;20553;-83
2022/03/01 08:16:33;;;;;;;18.57;11.77;;;;;;;;;;5001473;28;20237;-82
2022/03/01 08:19:19;;;;;;;14.70;11.50;;;;;;;;;;5001791;28;20206;-78
2022/03/01 08:21:45;;;;;;;18.23;12.07;;;;;;;;;;5017131;28;20242;-82
2022/03/01 08:24:11;;;;;;;16.33;11.40;;;;;;;;;;5027086;28;20674;-81
2022/03/01 08:26:38;;;;;;;17.83;11.73;;;;;;;;;;5025779;28;20214;-82
2022/03/01 08:29:07;;;;;;;17.33;11.90;;;;;;;;;;5009556;28;20178;-82
2022/03/01 08:31:39;;;;;;;15.57;11.97;;;;;;;;;;5029317;28;20543;-81
2022/03/01 08:34:14;;;;;;;21.43;13.17;;;;;;;;;;5026777;28;20278;-81
2022/03/01 08:36:40;;;;;;;15.93;12.23;;;;;;;;;;5024080;28;20211;-81
2022/03/01 08:39:06;;;;;;;21.13;14.93;;;;;;;;;;4997136;28;20321;-81
2022/03/01 08:41:32;;;;;;;16.73;12.97;;;;;;;;;;5025552;28;20183;-82
2022/03/01 08:44:01;;;;;;;21.57;14.13;;;;;;;;;;5008139;28;20214;-81
2022/03/01 08:46:27;;;;;;;21.27;13.23;;;;;;;;;;5022445;28;20205;-81
2022/03/01 08:48:53;;;;;;;17.63;13.53;;;;;;;;;;5023076;28;20646;-81
2022/03/01 08:51:21;;;;;;;19.53;13.27;;;;;;;;;;5019668;28;20191;-79
2022/03/01 08:56:48;;;;;;;19.17;12.53;;;;;;;;;;5205024;23;20257;-81
2022/03/01 08:59:15;;;;;;;16.73;12.57;;;;;;;;;;5025471;28;20186;-81
2022/03/01 09:01:41;;;;;;;16.93;12.80;;;;;;;;;;5025740;28;20177;-80
2022/03/01 09:04:09;;;;;;;16.27;11.83;;;;;;;;;;5019040;28;20665;-75
2022/03/01 09:06:35;;;;;;;21.30;12.47;;;;;;;;;;5016192;28;20211;-78
2022/03/01 09:09:02;;;;;;;19.53;12.13;;;;;;;;;;5037367;28;20669;-78
2022/03/01 09:11:34;;;;;;;16.73;11.30;;;;;;;;;;5037811;28;20184;-76
2022/03/01 09:14:00;;;;;;;18.20;12.40;;;;;;;;;;5038743;28;20186;-79
2022/03/01 09:16:26;;;;;;;18.87;12.70;;;;;;;;;;5020080;28;20205;-80
2022/03/01 09:18:52;;;;;;;18.77;11.80;;;;;;;;;;5037007;28;20213;-79
2022/03/01 09:21:18;;;;;;;16.20;11.87;;;;;;;;;;5036192;28;20204;-79
2022/03/01 09:23:44;;;;;;;21.93;14.37;;;;;;;;;;5019046;28;20216;-80
2022/03/01 09:26:11;;;;;;;16.80;11.87;;;;;;;;;;5038596;28;20220;-80
2022/03/01 09:28:37;;;;;;;16.67;11.90;;;;;;;;;;5046355;22;20226;-81
2022/03/01 09:31:03;;;;;;;20.47;15.33;;;;;;;;;;5012278;28;20309;-81
2022/03/01 09:33:29;;;;;;;15.83;11.83;;;;;;;;;;5001920;28;20194;-81
2022/03/01 09:35:55;;;;;;;18.87;11.50;;;;;;;;;;4998853;28;20183;-81
2022/03/01 09:38:24;;;;;;;18.33;11.27;;;;;;;;;;5009440;28;20623;-81
2022/03/01 09:40:50;;;;;;;17.00;11.73;;;;;;;;;;5007289;28;20190;-80
2022/03/01 09:43:16;;;;;;;14.93;10.80;;;;;;;;;;4990378;28;20203;-81
2022/03/01 09:45:42;;;;;;;19.80;11.53;;;;;;;;;;5011760;28;20244;-81
2022/03/01 09:48:08;;;;;;;14.40;11.43;;;;;;;;;;4985466;28;20195;-80
2022/03/01 09:50:34;;;;;;;16.87;12.03;;;;;;;;;;5003831;28;20190;-81
2022/03/01 09:53:01;;;;;;;16.37;11.90;;;;;;;;;;5008000;28;20186;-81
2022/03/01 09:55:28;;;;;;;15.37;10.40;;;;;;;;;;5018455;28;20317;-81
2022/03/01 09:57:55;;;;;;;14.03;11.30;;;;;;;;;;5004584;28;20693;-82
2022/03/01 10:00:21;;;;;;;19.50;12.77;;;;;;;;;;5007327;28;20184;-81
2022/03/01 10:02:53;;;;;;;16.90;11.77;;;;;;;;;;5006107;28;20210;-82
2022/03/01 10:05:19;;;;;;;17.90;11.60;;;;;;;;;;5004361;28;20176;-81
2022/03/01 10:07:45;;;;;;;13.63;11.03;;;;;;;;;;5005641;28;20196;-81
2022/03/01 10:10:19;;;;;;;16.27;11.40;;;;;;;;;;5007683;28;20199;-82
2022/03/01 10:12:52;;;;;;;20.77;13.30;;;;;;;;;;5005897;28;20175;-81
2022/03/01 10:15:20;;;;;;;14.70;10.80;;;;;;;;;;5007895;28;20190;-81
2022/03/01 10:17:47;;;;;;;17.77;11.70;;;;;;;;;;5013409;28;20195;-81
2022/03/01 10:20:15;;;;;;;13.03;10.80;;;;;;;;;;5006397;28;20168;-82
2022/03/01 10:22:45;;;;;;;15.33;11.13;;;;;;;;;;5006132;28;20670;-80
2022/03/01 10:25:12;;;;;;;15.73;11.10;;;;;;;;;;5007691;28;20173;-82
2022/03/01 10:27:38;;;;;;;16.67;11.07;;;;;;;;;;5008497;28;20223;-81
2022/03/01 10:30:05;;;;;;;14.43;10.73;;;;;;;;;;5006054;28;20182;-82
2022/03/01 10:32:34;;;;;;;14.77;11.20;;;;;;;;;;5007511;28;20178;-82
2022/03/01 10:35:01;;;;;;;16.00;11.37;;;;;;;;;;5005634;28;20189;-82
2022/03/01 10:37:29;;;;;;;18.23;11.20;;;;;;;;;;5012160;28;20692;-81
2022/03/01 10:40:10;;;;;;;15.13;11.77;;;;;;;;;;5001543;28;20186;-83
2022/03/01 10:42:36;;;;;;;14.23;10.93;;;;;;;;;;4995496;28;20255;-81
2022/03/01 10:45:02;;;;;;;15.57;11.60;;;;;;;;;;5013631;28;20793;-79
2022/03/01 10:47:28;;;;;;;14.77;10.87;;;;;;;;;;4999603;28;20205;-80
2022/03/01 10:50:01;;;;;;;14.63;10.80;;;;;;;;;;4995434;28;20187;-82
2022/03/01 10:52:34;;;;;;;16.53;10.43;;;;;;;;;;5007199;28;20194;-83
2022/03/01 10:55:00;;;;;;;11.90;10.43;;;;;;;;;;5000352;28;20178;-82
2022/03/01 10:57:26;;;;;;;14.67;11.40;;;;;;;;;;5017362;28;20230;-82
2022/03/01 10:59:52;;;;;;;16.37;11.23;;;;;;;;;;4998120;28;20224;-81
2022/03/01 11:02:19;;;;;;;13.03;11.20;;;;;;;;;;5001411;28;20754;-82
2022/03/01 11:04:46;;;;;;;16.43;10.27;;;;;;;;;;4998303;28;20575;-83
2022/03/01 11:07:13;;;;;;;13.93;10.33;;;;;;;;;;5013043;28;20206;-83
2022/03/01 11:09:39;;;;;;;13.70;10.30;;;;;;;;;;5006297;28;20189;-82
2022/03/01 11:12:09;;;;;;;15.17;12.37;;;;;;;;;;5005611;28;20546;-81
2022/03/01 11:14:38;;;;;;;12.57;11.07;;;;;;;;;;5004414;28;20678;-83
2022/03/01 11:17:11;;;;;;;81.93;40.67;;;;;;;;;;5006487;28;20202;-80
2022/03/01 11:19:52;;;;;;;20.03;14.43;;;;;;;;;;5010928;28;20180;-80
2022/03/01 11:22:28;;;;;;;25.30;17.67;;;;;;;;;;4996364;28;20183;-80
2022/03/01 11:24:54;;;;;;;14.67;11.47;;;;;;;;;;4997726;28;20208;-78
2022/03/01 11:27:21;;;;;;;12.90;10.67;;;;;;;;;;5019823;28;20212;-79
2022/03/01 11:29:47;;;;;;;12.77;9.97;;;;;;;;;;5021947;28;20202;-79
2022/03/01 11:32:18;;;;;;;12.60;10.30;;;;;;;;;;4998689;28;20555;-79
2022/03/01 11:34:45;;;;;;;11.57;9.47;;;;;;;;;;5012868;28;20199;-81
2022/03/01 11:37:17;;;;;;;10.57;9.47;;;;;;;;;;5015100;28;20206;-82
2022/03/01 11:39:44;;;;;;;9.10;8.17;;;;;;;;;;5008425;28;20717;-82
2022/03/01 11:42:15;;;;;;;12.33;9.03;;;;;;;;;;5006378;28;20287;-80
2022/03/01 11:44:42;;;;;;;12.67;9.47;;;;;;;;;;5005309;28;20200;-82
2022/03/01 11:47:12;;;;;;;13.37;10.23;;;;;;;;;;5005155;28;20204;-80
2022/03/01 11:49:40;;;;;;;12.43;9.73;;;;;;;;;;5004177;28;20172;-82
2022/03/01 11:52:16;;;;;;;9.37;8.27;;;;;;;;;;5003719;28;20698;-80
2022/03/01 11:54:43;;;;;;;10.33;8.97;;;;;;;;;;5002971;28;20184;-81
2022/03/01 11:57:10;;;;;;;12.03;9.40;;;;;;;;;;5003608;28;20203;-81
2022/03/01 11:59:40;;;;;;;10.10;9.10;;;;;;;;;;5016354;28;20220;-81
2022/03/01 12:02:09;;;;;;;12.27;10.17;;;;;;;;;;5011216;28;20197;-80
2022/03/01 12:04:43;;;;;;;10.47;9.27;;;;;;;;;;5012410;28;20205;-80
2022/03/01 12:07:10;;;;;;;18.07;9.20;;;;;;;;;;5015616;28;20271;-80
2022/03/01 12:09:38;;;;;;;11.30;8.40;;;;;;;;;;5018037;28;20180;-81
2022/03/01 12:12:05;;;;;;;10.70;8.87;;;;;;;;;;5014109;28;20238;-80
2022/03/01 12:14:34;;;;;;;10.83;8.03;;;;;;;;;;5016191;28;20271;-81
2022/03/01 12:17:00;;;;;;;10.83;8.67;;;;;;;;;;5016631;28;20184;-80
2022/03/01 12:19:29;;;;;;;10.37;9.00;;;;;;;;;;5019017;28;20189;-80
2022/03/01 12:21:58;;;;;;;12.70;8.73;;;;;;;;;;5005358;28;20185;-80
2022/03/01 12:24:24;;;;;;;12.87;8.63;;;;;;;;;;5011975;28;20257;-81
2022/03/01 12:26:52;;;;;;;10.27;8.83;;;;;;;;;;5010552;28;20633;-80
2022/03/01 12:29:19;;;;;;;8.43;7.60;;;;;;;;;;5005549;28;20195;-80
2022/03/01 12:31:54;;;;;;;9.43;8.20;;;;;;;;;;5002682;28;20231;-80
2022/03/01 12:34:23;;;;;;;10.30;8.27;;;;;;;;;;5009484;28;20656;-83
2022/03/01 12:36:54;;;;;;;9.20;8.30;;;;;;;;;;5007909;28;20194;-81
2022/03/01 12:39:20;;;;;;;8.90;6.83;;;;;;;;;;4989279;28;20199;-82
2022/03/01 12:41:47;;;;;;;8.30;7.50;;;;;;;;;;5004391;28;20567;-82
2022/03/01 12:44:13;;;;;;;8.40;7.60;;;;;;;;;;5005104;28;20207;-82
2022/03/01 12:46:40;;;;;;;9.17;8.27;;;;;;;;;;5003302;28;20536;-81
2022/03/01 12:49:08;;;;;;;9.77;7.83;;;;;;;;;;5010882;28;20197;-81
2022/03/01 12:51:34;;;;;;;10.07;7.83;;;;;;;;;;5001187;28;20187;-82
2022/03/01 12:54:03;;;;;;;8.40;7.60;;;;;;;;;;5000899;28;20189;-81
2022/03/01 12:56:30;;;;;;;8.87;7.97;;;;;;;;;;5001410;28;20183;-81
2022/03/01 12:59:01;;;;;;;10.87;7.90;;;;;;;;;;5001698;28;20215;-82
2022/03/01 13:01:27;;;;;;;8.47;7.33;;;;;;;;;;5000764;28;20193;-81
2022/03/01 13:03:53;;;;;;;9.43;7.57;;;;;;;;;;5000922;28;20566;-82
2022/03/01 13:06:20;;;;;;;10.83;8.27;;;;;;;;;;5000683;28;20216;-81
2022/03/01 13:08:52;;;;;;;7.97;7.27;;;;;;;;;;5000757;28;20675;-81
2022/03/01 13:11:18;;;;;;;8.63;7.13;;;;;;;;;;5001739;28;20182;-81
2022/03/01 13:13:58;;;;;;;8.30;7.43;;;;;;;;;;5001469;28;20193;-81
2022/03/01 13:16:28;;;;;;;7.67;6.97;;;;;;;;;;5007441;28;20189;-81
2022/03/01 13:18:55;;;;;;;8.63;7.83;;;;;;;;;;5003084;28;20224;-81
2022/03/01 13:21:29;;;;;;;8.43;7.53;;;;;;;;;;5003140;28;20191;-82
2022/03/01 13:23:56;;;;;;;7.07;5.83;;;;;;;;;;5005025;28;20249;-82
2022/03/01 13:26:22;;;;;;;8.63;7.37;;;;;;;;;;5003399;28;20208;-84
2022/03/01 13:28:48;;;;;;;8.77;6.93;;;;;;;;;;4999909;28;20224;-82
2022/03/01 13:31:23;;;;;;;7.93;7.20;;;;;;;;;;4999703;28;20176;-82
2022/03/01 13:33:53;;;;;;;8.90;7.97;;;;;;;;;;5000375;28;20181;-82
2022/03/01 13:36:19;;;;;;;7.93;7.07;;;;;;;;;;4998895;28;20196;-82
2022/03/01 13:38:55;;;;;;;11.90;8.13;;;;;;;;;;4998242;28;20206;-82
2022/03/01 13:41:25;;;;;;;10.67;8.23;;;;;;;;;;5009311;28;20542;-82
2022/03/01 13:43:51;;;;;;;8.57;7.37;;;;;;;;;;5014572;28;20205;-82
2022/03/01 13:46:17;;;;;;;8.60;6.37;;;;;;;;;;5011697;28;20196;-82
2022/03/01 13:48:43;;;;;;;7.37;6.23;;;;;;;;;;5001978;28;20235;-82
2022/03/01 13:51:10;;;;;;;7.90;6.17;;;;;;;;;;5005247;28;20653;-80
2022/03/01 13:53:38;;;;;;;7.57;5.63;;;;;;;;;;5018341;28;20204;-80
2022/03/01 13:56:05;;;;;;;8.03;5.70;;;;;;;;;;5014368;28;20654;-82
2022/03/01 13:58:31;;;;;;;7.20;5.93;;;;;;;;;;5014288;28;20212;-82
2022/03/01 14:00:59;;;;;;;8.07;5.70;;;;;;;;;;5008154;28;20188;-82
2022/03/01 14:03:27;;;;;;;8.73;6.30;;;;;;;;;;5002801;28;20291;-83
2022/03/01 14:05:55;;;;;;;7.37;6.23;;;;;;;;;;5001437;28;20183;-83
2022/03/01 14:08:21;;;;;;;7.43;5.60;;;;;;;;;;5009944;28;20200;-83
2022/03/01 14:10:56;;;;;;;8.03;6.17;;;;;;;;;;5017207;28;20202;-83
2022/03/01 14:13:25;;;;;;;6.57;5.83;;;;;;;;;;5004221;28;20187;-82
2022/03/01 14:15:52;;;;;;;6.87;6.20;;;;;;;;;;5013220;28;20212;-83
2022/03/01 14:18:19;;;;;;;6.37;5.57;;;;;;;;;;5022088;28;20204;-82
2022/03/01 14:20:48;;;;;;;7.63;5.10;;;;;;;;;;5018958;28;20570;-81
2022/03/01 14:23:19;;;;;;;7.27;5.33;;;;;;;;;;5014942;28;20197;-81
2022/03/01 14:25:45;;;;;;;5.73;5.13;;;;;;;;;;5011498;28;20749;-82
2022/03/01 14:28:12;;;;;;;6.47;5.57;;;;;;;;;;4971859;28;1091116;-83
2022/03/01 14:30:38;;;;;;;8.50;6.30;;;;;;;;;;5010091;28;20183;-81